sensor_id;sensor_type;location;lat;lon;timestamp;temperature;humidity
18105;DHT22;9179;50.968;3.134;2023-02-15T00:01:08;23.50;75.00
18105;DHT22;9179;50.968;3.134;2023-02-15T00:03:35;23.50;75.20
18105;DHT22;9179;50.968;3.134;2023-02-15T00:06:03;23.40;75.20
18105;DHT22;9179;50.968;3.134;2023-02-15T00:08:30;23.40;75.20
18105;DHT22;9179;50.968;3.134;2023-02-15T00:11:04;23.30;75.20
18105;DHT22;9179;50.968;3.134;2023-02-15T00:13:32;23.30;75.50
18105;DHT22;9179;50.968;3.134;2023-02-15T00:16:02;23.20;75.40
18105;DHT22;9179;50.968;3.134;2023-02-15T00:18:31;23.20;75.50
18105;DHT22;9179;50.968;3.134;2023-02-15T00:20:58;23.20;75.50
18105;DHT22;9179;50.968;3.134;2023-02-15T00:23:26;23.10;75.60
18105;DHT22;9179;50.968;3.134;2023-02-15T00:26:03;23.00;75.70
18105;DHT22;9179;50.968;3.134;2023-02-15T00:28:30;23.00;75.90
18105;DHT22;9179;50.968;3.134;2023-02-15T00:31:03;23.00;76.70
18105;DHT22;9179;50.968;3.134;2023-02-15T00:33:32;22.90;75.90
18105;DHT22;9179;50.968;3.134;2023-02-15T00:36:00;22.90;75.90
18105;DHT22;9179;50.968;3.134;2023-02-15T00:38:28;22.90;75.90
18105;DHT22;9179;50.968;3.134;2023-02-15T00:40:57;22.80;75.90
18105;DHT22;9179;50.968;3.134;2023-02-15T00:43:24;22.70;76.00
18105;DHT22;9179;50.968;3.134;2023-02-15T00:45:51;22.70;76.10
18105;DHT22;9179;50.968;3.134;2023-02-15T00:48:19;22.70;76.10
18105;DHT22;9179;50.968;3.134;2023-02-15T00:50:50;22.70;76.10
18105;DHT22;9179;50.968;3.134;2023-02-15T00:53:18;22.60;76.20
18105;DHT22;9179;50.968;3.134;2023-02-15T00:55:45;22.60;76.20
18105;DHT22;9179;50.968;3.134;2023-02-15T00:58:12;22.50;76.30
18105;DHT22;9179;50.968;3.134;2023-02-15T01:00:41;22.50;76.30
18105;DHT22;9179;50.968;3.134;2023-02-15T01:03:09;22.50;76.30
18105;DHT22;9179;50.968;3.134;2023-02-15T01:05:36;22.50;76.40
18105;DHT22;9179;50.968;3.134;2023-02-15T01:08:05;22.40;76.40
18105;DHT22;9179;50.968;3.134;2023-02-15T01:10:33;22.40;76.40
18105;DHT22;9179;50.968;3.134;2023-02-15T01:13:00;22.30;76.40
18105;DHT22;9179;50.968;3.134;2023-02-15T01:15:27;22.30;76.40
18105;DHT22;9179;50.968;3.134;2023-02-15T01:17:55;22.30;76.60
18105;DHT22;9179;50.968;3.134;2023-02-15T01:20:24;22.20;76.60
18105;DHT22;9179;50.968;3.134;2023-02-15T01:22:52;22.20;76.60
18105;DHT22;9179;50.968;3.134;2023-02-15T01:25:22;22.20;76.60
18105;DHT22;9179;50.968;3.134;2023-02-15T01:27:49;22.20;76.70
18105;DHT22;9179;50.968;3.134;2023-02-15T01:30:17;22.10;76.60
18105;DHT22;9179;50.968;3.134;2023-02-15T01:32:44;22.10;76.70
18105;DHT22;9179;50.968;3.134;2023-02-15T01:35:11;22.10;76.80
18105;DHT22;9179;50.968;3.134;2023-02-15T01:37:38;22.00;76.80
18105;DHT22;9179;50.968;3.134;2023-02-15T01:40:07;22.00;76.80
18105;DHT22;9179;50.968;3.134;2023-02-15T01:42:36;22.00;76.90
18105;DHT22;9179;50.968;3.134;2023-02-15T01:45:04;22.00;76.90
18105;DHT22;9179;50.968;3.134;2023-02-15T01:47:37;21.90;76.90
18105;DHT22;9179;50.968;3.134;2023-02-15T01:50:09;21.90;77.00
18105;DHT22;9179;50.968;3.134;2023-02-15T01:52:38;21.90;77.00
18105;DHT22;9179;50.968;3.134;2023-02-15T01:55:08;21.80;76.90
18105;DHT22;9179;50.968;3.134;2023-02-15T01:57:37;21.80;77.10
18105;DHT22;9179;50.968;3.134;2023-02-15T02:00:06;21.80;77.10
18105;DHT22;9179;50.968;3.134;2023-02-15T02:02:34;21.70;77.10
18105;DHT22;9179;50.968;3.134;2023-02-15T02:05:03;21.70;77.20
18105;DHT22;9179;50.968;3.134;2023-02-15T02:07:34;21.70;77.20
18105;DHT22;9179;50.968;3.134;2023-02-15T02:10:03;21.60;77.20
18105;DHT22;9179;50.968;3.134;2023-02-15T02:12:30;21.60;77.10
18105;DHT22;9179;50.968;3.134;2023-02-15T02:14:59;21.60;77.20
18105;DHT22;9179;50.968;3.134;2023-02-15T02:17:33;21.60;77.20
18105;DHT22;9179;50.968;3.134;2023-02-15T02:23:38;21.50;77.40
18105;DHT22;9179;50.968;3.134;2023-02-15T02:29:39;21.50;77.40
18105;DHT22;9179;50.968;3.134;2023-02-15T02:35:25;21.40;77.50
18105;DHT22;9179;50.968;3.134;2023-02-15T02:38:02;21.40;77.40
18105;DHT22;9179;50.968;3.134;2023-02-15T02:40:42;21.30;77.50
18105;DHT22;9179;50.968;3.134;2023-02-15T02:43:18;21.20;77.50
18105;DHT22;9179;50.968;3.134;2023-02-15T02:45:50;21.30;77.60
18105;DHT22;9179;50.968;3.134;2023-02-15T02:48:22;21.20;77.60
18105;DHT22;9179;50.968;3.134;2023-02-15T02:50:52;21.20;77.60
18105;DHT22;9179;50.968;3.134;2023-02-15T02:53:19;21.20;77.60
18105;DHT22;9179;50.968;3.134;2023-02-15T02:55:47;21.20;77.70
18105;DHT22;9179;50.968;3.134;2023-02-15T02:58:19;21.10;77.70
18105;DHT22;9179;50.968;3.134;2023-02-15T03:00:51;21.10;77.80
18105;DHT22;9179;50.968;3.134;2023-02-15T03:03:22;21.10;77.70
18105;DHT22;9179;50.968;3.134;2023-02-15T03:05:55;21.10;77.70
18105;DHT22;9179;50.968;3.134;2023-02-15T03:08:26;21.10;77.70
18105;DHT22;9179;50.968;3.134;2023-02-15T03:11:00;21.00;77.70
18105;DHT22;9179;50.968;3.134;2023-02-15T03:13:28;21.00;77.70
18105;DHT22;9179;50.968;3.134;2023-02-15T03:15:56;21.00;77.70
18105;DHT22;9179;50.968;3.134;2023-02-15T03:18:44;21.00;77.90
18105;DHT22;9179;50.968;3.134;2023-02-15T03:21:22;20.90;77.70
18105;DHT22;9179;50.968;3.134;2023-02-15T03:23:54;20.90;77.90
18105;DHT22;9179;50.968;3.134;2023-02-15T03:26:25;20.90;77.90
18105;DHT22;9179;50.968;3.134;2023-02-15T03:28:55;20.90;77.90
18105;DHT22;9179;50.968;3.134;2023-02-15T03:31:26;20.90;77.90
18105;DHT22;9179;50.968;3.134;2023-02-15T03:33:57;20.80;77.90
18105;DHT22;9179;50.968;3.134;2023-02-15T03:36:30;20.80;77.90
18105;DHT22;9179;50.968;3.134;2023-02-15T03:39:12;20.80;77.90
18105;DHT22;9179;50.968;3.134;2023-02-15T03:41:47;20.80;78.00
18105;DHT22;9179;50.968;3.134;2023-02-15T03:44:18;20.80;78.10
18105;DHT22;9179;50.968;3.134;2023-02-15T03:46:50;20.80;78.10
18105;DHT22;9179;50.968;3.134;2023-02-15T03:49:22;20.70;78.00
18105;DHT22;9179;50.968;3.134;2023-02-15T03:51:54;20.70;78.00
18105;DHT22;9179;50.968;3.134;2023-02-15T03:54:25;20.70;78.10
18105;DHT22;9179;50.968;3.134;2023-02-15T03:57:14;20.60;78.00
18105;DHT22;9179;50.968;3.134;2023-02-15T04:00:00;20.60;78.00
18105;DHT22;9179;50.968;3.134;2023-02-15T04:02:57;20.60;78.10
18105;DHT22;9179;50.968;3.134;2023-02-15T04:05:27;20.60;78.20
18105;DHT22;9179;50.968;3.134;2023-02-15T04:07:55;20.60;78.10
18105;DHT22;9179;50.968;3.134;2023-02-15T04:10:22;20.60;78.30
18105;DHT22;9179;50.968;3.134;2023-02-15T04:13:06;20.50;78.10
18105;DHT22;9179;50.968;3.134;2023-02-15T04:15:33;20.50;78.20
18105;DHT22;9179;50.968;3.134;2023-02-15T04:18:17;20.50;78.30
18105;DHT22;9179;50.968;3.134;2023-02-15T04:20:45;20.50;78.40
18105;DHT22;9179;50.968;3.134;2023-02-15T04:23:31;20.40;78.40
18105;DHT22;9179;50.968;3.134;2023-02-15T04:26:16;20.40;78.50
18105;DHT22;9179;50.968;3.134;2023-02-15T04:28:43;20.40;78.50
18105;DHT22;9179;50.968;3.134;2023-02-15T04:31:10;20.40;78.50
18105;DHT22;9179;50.968;3.134;2023-02-15T04:33:37;20.40;78.60
18105;DHT22;9179;50.968;3.134;2023-02-15T04:36:04;20.30;78.50
18105;DHT22;9179;50.968;3.134;2023-02-15T04:38:33;20.30;78.50
18105;DHT22;9179;50.968;3.134;2023-02-15T04:41:00;20.30;78.50
18105;DHT22;9179;50.968;3.134;2023-02-15T04:43:27;20.30;78.60
18105;DHT22;9179;50.968;3.134;2023-02-15T04:45:54;20.30;79.50
18105;DHT22;9179;50.968;3.134;2023-02-15T04:48:20;20.30;78.60
18105;DHT22;9179;50.968;3.134;2023-02-15T04:50:47;20.30;78.60
18105;DHT22;9179;50.968;3.134;2023-02-15T04:53:14;20.20;78.60
18105;DHT22;9179;50.968;3.134;2023-02-15T04:55:44;20.20;78.60
18105;DHT22;9179;50.968;3.134;2023-02-15T04:58:11;20.20;78.60
18105;DHT22;9179;50.968;3.134;2023-02-15T05:00:38;20.20;78.60
18105;DHT22;9179;50.968;3.134;2023-02-15T05:03:05;20.20;78.70
18105;DHT22;9179;50.968;3.134;2023-02-15T05:05:32;20.20;78.80
18105;DHT22;9179;50.968;3.134;2023-02-15T05:07:59;20.10;78.60
18105;DHT22;9179;50.968;3.134;2023-02-15T05:10:26;20.10;78.70
18105;DHT22;9179;50.968;3.134;2023-02-15T05:12:54;20.10;78.70
18105;DHT22;9179;50.968;3.134;2023-02-15T05:15:21;20.10;78.70
18105;DHT22;9179;50.968;3.134;2023-02-15T05:17:48;20.10;78.70
18105;DHT22;9179;50.968;3.134;2023-02-15T05:20:15;20.00;78.70
18105;DHT22;9179;50.968;3.134;2023-02-15T05:22:42;20.00;78.80
18105;DHT22;9179;50.968;3.134;2023-02-15T05:25:10;20.00;78.80
18105;DHT22;9179;50.968;3.134;2023-02-15T05:27:56;20.00;78.70
18105;DHT22;9179;50.968;3.134;2023-02-15T05:30:40;20.00;78.70
18105;DHT22;9179;50.968;3.134;2023-02-15T05:33:07;20.00;78.70
18105;DHT22;9179;50.968;3.134;2023-02-15T05:35:34;19.90;78.70
18105;DHT22;9179;50.968;3.134;2023-02-15T05:38:01;19.90;78.70
18105;DHT22;9179;50.968;3.134;2023-02-15T05:40:28;19.90;78.80
18105;DHT22;9179;50.968;3.134;2023-02-15T05:42:57;19.90;78.80
18105;DHT22;9179;50.968;3.134;2023-02-15T05:45:24;19.90;78.80
18105;DHT22;9179;50.968;3.134;2023-02-15T05:47:52;19.90;78.80
18105;DHT22;9179;50.968;3.134;2023-02-15T05:50:18;19.80;78.80
18105;DHT22;9179;50.968;3.134;2023-02-15T05:52:45;19.80;78.80
18105;DHT22;9179;50.968;3.134;2023-02-15T05:55:12;19.80;78.80
18105;DHT22;9179;50.968;3.134;2023-02-15T05:57:39;19.80;78.90
18105;DHT22;9179;50.968;3.134;2023-02-15T06:00:09;19.80;78.90
18105;DHT22;9179;50.968;3.134;2023-02-15T06:02:36;19.70;78.80
18105;DHT22;9179;50.968;3.134;2023-02-15T06:05:04;19.70;78.80
18105;DHT22;9179;50.968;3.134;2023-02-15T06:07:32;19.70;78.80
18105;DHT22;9179;50.968;3.134;2023-02-15T06:09:59;19.70;78.90
18105;DHT22;9179;50.968;3.134;2023-02-15T06:12:26;19.70;78.80
18105;DHT22;9179;50.968;3.134;2023-02-15T06:14:53;19.60;78.80
18105;DHT22;9179;50.968;3.134;2023-02-15T06:17:21;19.70;78.80
18105;DHT22;9179;50.968;3.134;2023-02-15T06:19:48;19.70;79.00
18105;DHT22;9179;50.968;3.134;2023-02-15T06:22:15;19.60;79.00
18105;DHT22;9179;50.968;3.134;2023-02-15T06:24:42;19.60;79.10
18105;DHT22;9179;50.968;3.134;2023-02-15T06:27:09;19.70;79.20
18105;DHT22;9179;50.968;3.134;2023-02-15T06:29:36;19.70;79.20
18105;DHT22;9179;50.968;3.134;2023-02-15T06:32:03;19.90;79.60
18105;DHT22;9179;50.968;3.134;2023-02-15T06:34:32;20.20;79.60
18105;DHT22;9179;50.968;3.134;2023-02-15T06:36:59;20.50;79.20
18105;DHT22;9179;50.968;3.134;2023-02-15T06:39:25;21.00;78.70
18105;DHT22;9179;50.968;3.134;2023-02-15T06:41:52;21.40;77.80
18105;DHT22;9179;50.968;3.134;2023-02-15T06:44:19;21.80;76.90
18105;DHT22;9179;50.968;3.134;2023-02-15T06:46:46;22.30;76.10
18105;DHT22;9179;50.968;3.134;2023-02-15T06:49:13;22.70;75.50
18105;DHT22;9179;50.968;3.134;2023-02-15T06:51:41;23.10;75.00
18105;DHT22;9179;50.968;3.134;2023-02-15T06:54:08;23.50;74.40
18105;DHT22;9179;50.968;3.134;2023-02-15T06:56:35;23.90;73.70
18105;DHT22;9179;50.968;3.134;2023-02-15T06:59:03;24.30;73.10
18105;DHT22;9179;50.968;3.134;2023-02-15T07:01:30;24.50;72.40
18105;DHT22;9179;50.968;3.134;2023-02-15T07:03:57;24.70;71.90
18105;DHT22;9179;50.968;3.134;2023-02-15T07:06:24;24.90;71.30
18105;DHT22;9179;50.968;3.134;2023-02-15T07:08:52;25.10;70.90
18105;DHT22;9179;50.968;3.134;2023-02-15T07:11:19;25.20;70.50
18105;DHT22;9179;50.968;3.134;2023-02-15T07:14:12;25.20;70.30
18105;DHT22;9179;50.968;3.134;2023-02-15T07:16:39;25.30;70.20
18105;DHT22;9179;50.968;3.134;2023-02-15T07:19:06;25.30;70.00
18105;DHT22;9179;50.968;3.134;2023-02-15T07:21:33;25.30;70.00
18105;DHT22;9179;50.968;3.134;2023-02-15T07:24:02;25.20;69.90
18105;DHT22;9179;50.968;3.134;2023-02-15T07:26:31;25.20;69.80
18105;DHT22;9179;50.968;3.134;2023-02-15T07:28:58;25.10;69.70
18105;DHT22;9179;50.968;3.134;2023-02-15T07:31:25;25.00;69.80
18105;DHT22;9179;50.968;3.134;2023-02-15T07:33:52;25.00;69.80
18105;DHT22;9179;50.968;3.134;2023-02-15T07:36:19;24.90;69.70
18105;DHT22;9179;50.968;3.134;2023-02-15T07:38:46;24.90;69.80
18105;DHT22;9179;50.968;3.134;2023-02-15T07:41:14;24.80;69.80
18105;DHT22;9179;50.968;3.134;2023-02-15T07:43:44;24.70;69.80
18105;DHT22;9179;50.968;3.134;2023-02-15T07:46:13;24.70;70.10
18105;DHT22;9179;50.968;3.134;2023-02-15T07:48:41;24.70;69.90
18105;DHT22;9179;50.968;3.134;2023-02-15T07:51:10;24.70;69.90
18105;DHT22;9179;50.968;3.134;2023-02-15T07:53:38;24.60;70.10
18105;DHT22;9179;50.968;3.134;2023-02-15T07:56:06;24.50;70.90
18105;DHT22;9179;50.968;3.134;2023-02-15T07:58:35;24.50;71.60
18105;DHT22;9179;50.968;3.134;2023-02-15T08:01:18;24.50;72.10
18105;DHT22;9179;50.968;3.134;2023-02-15T08:03:45;24.60;72.30
18105;DHT22;9179;50.968;3.134;2023-02-15T08:06:13;24.80;73.40
18105;DHT22;9179;50.968;3.134;2023-02-15T08:08:40;25.10;72.40
18105;DHT22;9179;50.968;3.134;2023-02-15T08:11:17;25.40;72.20
18105;DHT22;9179;50.968;3.134;2023-02-15T08:14:01;25.70;71.60
18105;DHT22;9179;50.968;3.134;2023-02-15T08:16:32;25.90;71.10
18105;DHT22;9179;50.968;3.134;2023-02-15T08:19:01;26.10;70.60
18105;DHT22;9179;50.968;3.134;2023-02-15T08:21:29;26.20;70.20
18105;DHT22;9179;50.968;3.134;2023-02-15T08:23:57;26.40;70.00
18105;DHT22;9179;50.968;3.134;2023-02-15T08:26:26;26.40;69.60
18105;DHT22;9179;50.968;3.134;2023-02-15T08:28:54;26.50;69.40
18105;DHT22;9179;50.968;3.134;2023-02-15T08:31:22;26.40;69.20
18105;DHT22;9179;50.968;3.134;2023-02-15T08:33:51;26.40;69.10
18105;DHT22;9179;50.968;3.134;2023-02-15T08:36:20;26.40;69.00
18105;DHT22;9179;50.968;3.134;2023-02-15T08:38:48;26.30;68.90
18105;DHT22;9179;50.968;3.134;2023-02-15T08:41:17;26.30;68.80
18105;DHT22;9179;50.968;3.134;2023-02-15T08:43:46;26.20;68.70
18105;DHT22;9179;50.968;3.134;2023-02-15T09:26:38;23.40;71.90
18105;DHT22;9179;50.968;3.134;2023-02-15T09:29:06;23.80;74.30
18105;DHT22;9179;50.968;3.134;2023-02-15T09:31:38;24.30;73.90
18105;DHT22;9179;50.968;3.134;2023-02-15T09:34:06;24.60;73.20
18105;DHT22;9179;50.968;3.134;2023-02-15T09:36:34;24.80;72.90
18105;DHT22;9179;50.968;3.134;2023-02-15T09:39:07;25.00;72.70
18105;DHT22;9179;50.968;3.134;2023-02-15T09:41:52;25.10;72.60
18105;DHT22;9179;50.968;3.134;2023-02-15T09:44:30;25.20;72.50
18105;DHT22;9179;50.968;3.134;2023-02-15T09:47:14;25.20;72.50
18105;DHT22;9179;50.968;3.134;2023-02-15T09:49:50;25.20;72.30
18105;DHT22;9179;50.968;3.134;2023-02-15T09:52:37;25.30;72.50
18105;DHT22;9179;50.968;3.134;2023-02-15T09:55:23;25.30;72.50
18105;DHT22;9179;50.968;3.134;2023-02-15T09:58:01;25.20;73.10
18105;DHT22;9179;50.968;3.134;2023-02-15T10:00:38;25.30;73.30
18105;DHT22;9179;50.968;3.134;2023-02-15T10:03:26;25.20;73.30
18105;DHT22;9179;50.968;3.134;2023-02-15T10:06:14;25.20;73.10
18105;DHT22;9179;50.968;3.134;2023-02-15T10:12:01;25.00;73.30
18105;DHT22;9179;50.968;3.134;2023-02-15T10:14:47;25.00;73.20
18105;DHT22;9179;50.968;3.134;2023-02-15T10:17:29;25.00;73.50
18105;DHT22;9179;50.968;3.134;2023-02-15T10:20:10;25.00;73.60
18105;DHT22;9179;50.968;3.134;2023-02-15T10:22:51;24.90;73.70
18105;DHT22;9179;50.968;3.134;2023-02-15T10:25:31;24.90;73.80
18105;DHT22;9179;50.968;3.134;2023-02-15T10:28:04;24.90;73.70
18105;DHT22;9179;50.968;3.134;2023-02-15T10:30:41;24.90;73.70
18105;DHT22;9179;50.968;3.134;2023-02-15T10:33:15;24.90;73.60
18105;DHT22;9179;50.968;3.134;2023-02-15T10:35:54;24.90;73.20
18105;DHT22;9179;50.968;3.134;2023-02-15T10:38:31;24.90;73.10
18105;DHT22;9179;50.968;3.134;2023-02-15T10:41:09;24.90;73.30
18105;DHT22;9179;50.968;3.134;2023-02-15T10:43:49;24.90;73.60
18105;DHT22;9179;50.968;3.134;2023-02-15T10:46:33;24.90;73.80
18105;DHT22;9179;50.968;3.134;2023-02-15T10:49:15;24.80;74.00
18105;DHT22;9179;50.968;3.134;2023-02-15T10:51:55;24.80;74.30
18105;DHT22;9179;50.968;3.134;2023-02-15T10:54:33;24.80;74.50
18105;DHT22;9179;50.968;3.134;2023-02-15T10:57:06;24.80;74.60
18105;DHT22;9179;50.968;3.134;2023-02-15T10:59:50;24.70;74.60
18105;DHT22;9179;50.968;3.134;2023-02-15T11:02:28;24.70;74.80
18105;DHT22;9179;50.968;3.134;2023-02-15T11:05:02;24.60;74.90
18105;DHT22;9179;50.968;3.134;2023-02-15T11:07:39;24.60;75.20
18105;DHT22;9179;50.968;3.134;2023-02-15T11:10:18;24.50;75.60
18105;DHT22;9179;50.968;3.134;2023-02-15T11:12:49;24.40;76.30
18105;DHT22;9179;50.968;3.134;2023-02-15T11:15:31;24.40;76.70
18105;DHT22;9179;50.968;3.134;2023-02-15T11:18:05;24.30;77.30
18105;DHT22;9179;50.968;3.134;2023-02-15T11:20:38;24.30;77.50
18105;DHT22;9179;50.968;3.134;2023-02-15T11:23:13;24.30;77.70
18105;DHT22;9179;50.968;3.134;2023-02-15T11:25:44;24.20;78.00
18105;DHT22;9179;50.968;3.134;2023-02-15T11:28:19;24.20;78.30
18105;DHT22;9179;50.968;3.134;2023-02-15T11:30:49;24.20;78.00
18105;DHT22;9179;50.968;3.134;2023-02-15T11:33:22;24.20;77.80
18105;DHT22;9179;50.968;3.134;2023-02-15T11:35:55;24.10;77.70
18105;DHT22;9179;50.968;3.134;2023-02-15T11:38:29;24.10;77.80
18105;DHT22;9179;50.968;3.134;2023-02-15T11:41:02;24.10;78.40
18105;DHT22;9179;50.968;3.134;2023-02-15T11:43:35;24.10;78.60
18105;DHT22;9179;50.968;3.134;2023-02-15T11:46:04;24.10;79.10
18105;DHT22;9179;50.968;3.134;2023-02-15T11:48:33;24.00;79.30
18105;DHT22;9179;50.968;3.134;2023-02-15T11:51:02;24.00;79.10
18105;DHT22;9179;50.968;3.134;2023-02-15T11:53:32;24.00;78.90
18105;DHT22;9179;50.968;3.134;2023-02-15T11:56:00;24.00;78.80
18105;DHT22;9179;50.968;3.134;2023-02-15T11:58:33;24.00;78.80
18105;DHT22;9179;50.968;3.134;2023-02-15T12:01:09;23.90;78.80
18105;DHT22;9179;50.968;3.134;2023-02-15T12:03:44;23.90;79.30
18105;DHT22;9179;50.968;3.134;2023-02-15T12:06:18;23.90;79.50
18105;DHT22;9179;50.968;3.134;2023-02-15T12:08:59;24.00;80.60
18105;DHT22;9179;50.968;3.134;2023-02-15T12:11:32;23.90;80.00
18105;DHT22;9179;50.968;3.134;2023-02-15T12:14:01;23.90;79.90
18105;DHT22;9179;50.968;3.134;2023-02-15T12:16:34;23.90;80.00
18105;DHT22;9179;50.968;3.134;2023-02-15T12:19:21;23.90;80.10
18105;DHT22;9179;50.968;3.134;2023-02-15T12:21:51;23.80;80.20
18105;DHT22;9179;50.968;3.134;2023-02-15T12:24:21;23.90;80.20
18105;DHT22;9179;50.968;3.134;2023-02-15T12:26:57;23.90;80.10
18105;DHT22;9179;50.968;3.134;2023-02-15T12:29:27;23.90;80.10
18105;DHT22;9179;50.968;3.134;2023-02-15T12:31:56;23.90;80.00
18105;DHT22;9179;50.968;3.134;2023-02-15T12:34:28;23.90;79.50
18105;DHT22;9179;50.968;3.134;2023-02-15T12:36:57;23.90;79.30
18105;DHT22;9179;50.968;3.134;2023-02-15T12:39:28;23.90;79.30
18105;DHT22;9179;50.968;3.134;2023-02-15T12:42:02;23.90;79.20
18105;DHT22;9179;50.968;3.134;2023-02-15T12:44:31;23.90;79.10
18105;DHT22;9179;50.968;3.134;2023-02-15T12:47:01;23.90;79.10
18105;DHT22;9179;50.968;3.134;2023-02-15T12:49:29;23.90;79.10
18105;DHT22;9179;50.968;3.134;2023-02-15T12:51:58;23.90;79.00
18105;DHT22;9179;50.968;3.134;2023-02-15T12:54:39;23.90;79.00
18105;DHT22;9179;50.968;3.134;2023-02-15T12:57:24;23.80;78.80
18105;DHT22;9179;50.968;3.134;2023-02-15T12:59:54;23.90;78.80
18105;DHT22;9179;50.968;3.134;2023-02-15T13:02:25;23.90;78.80
18105;DHT22;9179;50.968;3.134;2023-02-15T13:04:55;23.90;78.80
18105;DHT22;9179;50.968;3.134;2023-02-15T13:07:25;23.90;78.70
18105;DHT22;9179;50.968;3.134;2023-02-15T13:09:56;23.80;78.60
18105;DHT22;9179;50.968;3.134;2023-02-15T13:12:25;23.80;78.50
18105;DHT22;9179;50.968;3.134;2023-02-15T13:14:54;23.80;78.50
18105;DHT22;9179;50.968;3.134;2023-02-15T13:17:25;23.80;78.50
18105;DHT22;9179;50.968;3.134;2023-02-15T13:19:58;23.80;78.40
18105;DHT22;9179;50.968;3.134;2023-02-15T13:22:32;23.80;78.30
18105;DHT22;9179;50.968;3.134;2023-02-15T13:25:04;23.80;78.30
18105;DHT22;9179;50.968;3.134;2023-02-15T13:27:37;23.80;78.30
18105;DHT22;9179;50.968;3.134;2023-02-15T13:30:17;23.80;78.30
18105;DHT22;9179;50.968;3.134;2023-02-15T13:32:49;23.80;78.20
18105;DHT22;9179;50.968;3.134;2023-02-15T13:35:19;23.80;78.20
18105;DHT22;9179;50.968;3.134;2023-02-15T13:38:11;23.80;78.70
18105;DHT22;9179;50.968;3.134;2023-02-15T13:40:47;23.90;79.30
18105;DHT22;9179;50.968;3.134;2023-02-15T13:43:25;23.90;79.80
18105;DHT22;9179;50.968;3.134;2023-02-15T13:46:08;23.90;80.10
18105;DHT22;9179;50.968;3.134;2023-02-15T13:48:44;24.00;80.90
18105;DHT22;9179;50.968;3.134;2023-02-15T13:51:21;23.90;81.20
18105;DHT22;9179;50.968;3.134;2023-02-15T13:54:15;23.90;81.40
18105;DHT22;9179;50.968;3.134;2023-02-15T13:56:54;24.00;81.60
18105;DHT22;9179;50.968;3.134;2023-02-15T13:59:41;24.00;81.60
18105;DHT22;9179;50.968;3.134;2023-02-15T14:02:36;24.00;81.60
18105;DHT22;9179;50.968;3.134;2023-02-15T14:05:29;24.00;81.70
18105;DHT22;9179;50.968;3.134;2023-02-15T14:08:08;24.00;81.70
18105;DHT22;9179;50.968;3.134;2023-02-15T14:10:47;24.00;81.80
18105;DHT22;9179;50.968;3.134;2023-02-15T14:13:47;24.00;81.80
18105;DHT22;9179;50.968;3.134;2023-02-15T14:16:23;24.00;81.90
18105;DHT22;9179;50.968;3.134;2023-02-15T14:18:55;24.00;81.70
18105;DHT22;9179;50.968;3.134;2023-02-15T14:21:30;24.00;82.60
18105;DHT22;9179;50.968;3.134;2023-02-15T14:24:08;24.00;81.80
18105;DHT22;9179;50.968;3.134;2023-02-15T14:26:47;24.00;81.80
18105;DHT22;9179;50.968;3.134;2023-02-15T14:29:27;24.10;81.90
18105;DHT22;9179;50.968;3.134;2023-02-15T14:31:59;24.10;81.80
18105;DHT22;9179;50.968;3.134;2023-02-15T14:34:32;24.00;81.80
18105;DHT22;9179;50.968;3.134;2023-02-15T14:37:03;24.00;81.80
18105;DHT22;9179;50.968;3.134;2023-02-15T14:39:43;24.00;81.90
18105;DHT22;9179;50.968;3.134;2023-02-15T14:42:35;24.00;81.90
18105;DHT22;9179;50.968;3.134;2023-02-15T14:45:06;24.00;81.90
18105;DHT22;9179;50.968;3.134;2023-02-15T14:47:43;24.00;81.90
18105;DHT22;9179;50.968;3.134;2023-02-15T14:50:36;24.00;81.90
18105;DHT22;9179;50.968;3.134;2023-02-15T14:56:17;23.90;82.00
18105;DHT22;9179;50.968;3.134;2023-02-15T14:59:16;24.00;82.10
18105;DHT22;9179;50.968;3.134;2023-02-15T15:01:56;24.00;82.10
18105;DHT22;9179;50.968;3.134;2023-02-15T15:04:28;23.90;82.10
18105;DHT22;9179;50.968;3.134;2023-02-15T15:07:03;23.90;82.10
18105;DHT22;9179;50.968;3.134;2023-02-15T15:09:37;23.90;82.20
18105;DHT22;9179;50.968;3.134;2023-02-15T15:12:36;23.90;82.10
18105;DHT22;9179;50.968;3.134;2023-02-15T15:15:05;23.80;82.10
18105;DHT22;9179;50.968;3.134;2023-02-15T15:17:56;23.80;82.10
18105;DHT22;9179;50.968;3.134;2023-02-15T15:20:45;23.80;82.30
18105;DHT22;9179;50.968;3.134;2023-02-15T15:23:41;23.80;82.20
18105;DHT22;9179;50.968;3.134;2023-02-15T15:26:25;23.80;82.20
18105;DHT22;9179;50.968;3.134;2023-02-15T15:28:58;23.80;82.20
18105;DHT22;9179;50.968;3.134;2023-02-15T15:31:41;23.90;82.30
18105;DHT22;9179;50.968;3.134;2023-02-15T15:40:42;24.80;80.50
18105;DHT22;9179;50.968;3.134;2023-02-15T15:46:34;25.30;78.50
18105;DHT22;9179;50.968;3.134;2023-02-15T15:49:07;25.60;77.80
18105;DHT22;9179;50.968;3.134;2023-02-15T15:51:39;25.70;77.00
18105;DHT22;9179;50.968;3.134;2023-02-15T15:54:14;25.90;76.40
18105;DHT22;9179;50.968;3.134;2023-02-15T15:56:44;26.00;75.80
18105;DHT22;9179;50.968;3.134;2023-02-15T15:59:17;26.10;75.60
18105;DHT22;9179;50.968;3.134;2023-02-15T16:01:47;26.10;75.00
18105;DHT22;9179;50.968;3.134;2023-02-15T16:04:23;26.20;74.70
18105;DHT22;9179;50.968;3.134;2023-02-15T16:06:51;26.30;74.30
18105;DHT22;9179;50.968;3.134;2023-02-15T16:09:20;26.30;74.30
18105;DHT22;9179;50.968;3.134;2023-02-15T16:11:49;26.20;74.00
18105;DHT22;9179;50.968;3.134;2023-02-15T16:14:25;26.20;73.80
18105;DHT22;9179;50.968;3.134;2023-02-15T16:16:56;26.20;73.80
18105;DHT22;9179;50.968;3.134;2023-02-15T16:19:26;26.20;73.80
18105;DHT22;9179;50.968;3.134;2023-02-15T16:21:55;26.10;73.70
18105;DHT22;9179;50.968;3.134;2023-02-15T16:24:57;26.10;73.80
18105;DHT22;9179;50.968;3.134;2023-02-15T16:27:34;26.10;73.80
18105;DHT22;9179;50.968;3.134;2023-02-15T16:30:23;26.00;73.90
18105;DHT22;9179;50.968;3.134;2023-02-15T16:32:55;25.90;73.90
18105;DHT22;9179;50.968;3.134;2023-02-15T16:35:23;25.90;73.80
18105;DHT22;9179;50.968;3.134;2023-02-15T16:37:50;25.90;73.90
18105;DHT22;9179;50.968;3.134;2023-02-15T16:40:30;25.80;73.90
18105;DHT22;9179;50.968;3.134;2023-02-15T16:43:03;25.70;73.90
18105;DHT22;9179;50.968;3.134;2023-02-15T16:45:32;25.70;74.00
18105;DHT22;9179;50.968;3.134;2023-02-15T16:48:01;25.60;74.10
18105;DHT22;9179;50.968;3.134;2023-02-15T16:50:34;25.50;74.20
18105;DHT22;9179;50.968;3.134;2023-02-15T16:53:02;25.60;74.20
18105;DHT22;9179;50.968;3.134;2023-02-15T16:55:35;25.50;74.10
18105;DHT22;9179;50.968;3.134;2023-02-15T16:58:05;25.50;74.10
18105;DHT22;9179;50.968;3.134;2023-02-15T17:00:35;25.40;74.20
18105;DHT22;9179;50.968;3.134;2023-02-15T17:03:12;25.40;74.40
18105;DHT22;9179;50.968;3.134;2023-02-15T17:05:47;25.30;74.50
18105;DHT22;9179;50.968;3.134;2023-02-15T17:08:16;25.30;74.60
18105;DHT22;9179;50.968;3.134;2023-02-15T17:10:46;25.20;74.60
18105;DHT22;9179;50.968;3.134;2023-02-15T17:13:27;25.10;74.70
18105;DHT22;9179;50.968;3.134;2023-02-15T17:18:52;25.00;75.00
18105;DHT22;9179;50.968;3.134;2023-02-15T17:21:27;25.00;75.10
18105;DHT22;9179;50.968;3.134;2023-02-15T17:23:58;24.90;75.10
18105;DHT22;9179;50.968;3.134;2023-02-15T17:26:29;24.90;75.30
18105;DHT22;9179;50.968;3.134;2023-02-15T17:28:57;24.80;75.40